Stacja Pogody Warszawa Praga Północ 


Stacja Pogody
Warszawa Praga Północ

 Szerokość N 52° 15 '43"    Długość E 21° 01' 22"    Wysokość 89 m n.p.m.


Wschód Słońca 04:29 Górowanie Słońca 12:32 Zachód Słońca 20:36 bliznieta
Data juliańska 2457167.784 Odległość Słońca 151483852 km Średn. kątowa Słońca 0,316°
Wschód Księżyca 10:45 Zachód Księżyca 00:35 Wiek Księżyca 6 dni Moon
Widoczność Księżyca 36,45% Odległość Księżyca 401604 km Średn. kątowa Księżyca 0,298°
Dzień krótszy od najdłuższego o: 00:41 Długość dnia 16:06 Imieniny Joanny, Zuzanny




Warunki pogodowe uaktualnione 24-05-2015, o godzinie 06:41
Temperatura 12.5 °C ↑ Temperatura odczuwalna 11.7 °C
Punkt rosy 10.6 °C Humidex 14.0 °C
Deszcz na godzinę 0.0 mm Wilgotność względna 88% ↓
Prędkość wiatru (średnia) 0 km/h → Prędkość wiatru (podmuch) 5 km/h
Kierunek wiatru WSW Skala Beaufort'a 1
Przepływ wiatru w ciągu ostatniej doby 5 km
Ciśnienie względne  1018 hPa Trend ciśnienia powolny wzrost
Ciśnienie bezwzględne  1005 hPa Podstawa chmur 326.0 m
METAR EPWA 240430Z VRB02KT CAVOK 12/10 Q1018 NOSIG
TAF TAF EPWA 232330Z 2400/2424 VRB05KT CAVOK





 a

Valid XHTML 1.0 Transitional Valid CSS!